createdAt,value
2023-01-28T00:00:09.783Z,0.57
2023-01-28T00:02:39.412Z,0.55
2023-01-28T00:05:07.820Z,0.52
2023-01-28T00:07:35.450Z,0.48
2023-01-28T00:10:03.296Z,0.48
2023-01-28T00:12:30.923Z,0.48
2023-01-28T00:14:58.635Z,0.47
2023-01-28T00:17:28.842Z,0.50
2023-01-28T00:19:56.423Z,0.50
2023-01-28T00:22:24.110Z,0.50
2023-01-28T00:24:51.825Z,0.51
2023-01-28T00:27:20.063Z,0.51
2023-01-28T00:30:01.678Z,0.53
2023-01-28T00:32:31.523Z,0.55
2023-01-28T00:35:01.272Z,0.54
2023-01-28T00:37:30.096Z,0.55
2023-01-28T00:39:59.607Z,0.56
2023-01-28T00:42:27.190Z,0.59
2023-01-28T00:44:56.643Z,0.60
2023-01-28T00:47:26.235Z,0.59
2023-01-28T00:50:11.913Z,0.61
2023-01-28T00:52:39.933Z,0.61
2023-01-28T00:55:08.120Z,0.60
2023-01-28T00:57:35.995Z,0.62
2023-01-28T01:00:05.245Z,0.64
2023-01-28T01:02:33.715Z,0.64
2023-01-28T01:05:02.144Z,0.65
2023-01-28T01:13:37.815Z,0.70
2023-01-28T01:16:12.008Z,0.69
2023-01-28T01:18:42.681Z,0.67
2023-01-28T01:21:16.866Z,0.62
2023-01-28T01:23:46.450Z,0.62
2023-01-28T01:26:14.541Z,0.62
2023-01-28T01:28:42.215Z,0.62
2023-01-28T01:31:17.827Z,0.62
2023-01-28T01:33:47.283Z,0.61
2023-01-28T01:36:16.716Z,0.59
2023-01-28T01:38:45.430Z,0.58
2023-01-28T01:41:22.409Z,0.58
2023-01-28T01:43:55.687Z,0.59
2023-01-28T01:46:30.035Z,0.60
2023-01-28T01:49:01.239Z,0.62
2023-01-28T01:51:31.060Z,0.65
2023-01-28T01:53:59.576Z,0.65
2023-01-28T01:56:31.149Z,0.66
2023-01-28T01:59:00.224Z,0.66
2023-01-28T02:01:29.946Z,0.67
2023-01-28T02:04:22.197Z,0.66
2023-01-28T02:06:50.090Z,0.64
2023-01-28T02:09:25.675Z,0.65
2023-01-28T02:12:10.097Z,0.65
2023-01-28T02:14:41.127Z,0.66
2023-01-28T02:17:09.239Z,0.65
2023-01-28T02:19:43.447Z,0.65
2023-01-28T02:22:23.666Z,0.64
2023-01-28T02:25:14.660Z,0.59
2023-01-28T02:28:01.800Z,0.54
2023-01-28T02:30:37.558Z,0.51
2023-01-28T02:33:12.384Z,0.52
2023-01-28T02:35:56.064Z,0.50
2023-01-28T02:38:27.515Z,0.50
2023-01-28T02:41:01.690Z,0.47
2023-01-28T02:43:38.408Z,0.46
2023-01-28T02:46:30.701Z,0.46
2023-01-28T02:48:59.054Z,0.46
2023-01-28T02:51:36.133Z,0.41
2023-01-28T02:54:16.474Z,0.39
2023-01-28T02:57:03.466Z,0.37
2023-01-28T02:59:42.882Z,0.36
2023-01-28T03:02:39.164Z,0.35
2023-01-28T03:05:16.432Z,0.33
2023-01-28T03:07:44.550Z,0.33
2023-01-28T03:10:16.263Z,0.33
2023-01-28T03:13:03.185Z,0.33
2023-01-28T03:15:55.486Z,0.35
2023-01-28T03:18:50.836Z,0.36
2023-01-28T03:21:39.812Z,0.38
2023-01-28T03:24:32.115Z,0.40
2023-01-28T03:27:29.269Z,0.41
2023-01-28T03:30:19.601Z,0.44
2023-01-28T03:33:06.174Z,0.45
2023-01-28T03:35:53.477Z,0.47
2023-01-28T03:38:22.588Z,0.47
2023-01-28T03:40:53.695Z,0.47
2023-01-28T03:43:22.636Z,0.47
2023-01-28T03:45:52.028Z,0.47
2023-01-28T03:48:20.610Z,0.46
2023-01-28T03:50:48.616Z,0.42
2023-01-28T03:53:17.160Z,0.38
2023-01-28T03:55:50.570Z,0.35
2023-01-28T03:58:18.693Z,0.32
2023-01-28T04:00:47.065Z,0.31
2023-01-28T04:03:16.504Z,0.30
2023-01-28T04:06:00.891Z,0.26
2023-01-28T04:08:30.554Z,0.24
2023-01-28T04:11:19.522Z,0.22
2023-01-28T04:13:48.843Z,0.20
2023-01-28T04:16:18.365Z,0.18
2023-01-28T04:18:46.286Z,0.17
2023-01-28T04:21:14.242Z,0.16
2023-01-28T04:23:42.111Z,0.14
2023-01-28T04:26:10.880Z,0.12
2023-01-28T04:28:38.747Z,0.11
2023-01-28T04:31:06.930Z,0.10
2023-01-28T04:34:02.801Z,0.11
2023-01-28T04:36:42.034Z,0.08
2023-01-28T04:39:24.385Z,0.04
2023-01-28T04:42:10.455Z,0.03
2023-01-28T04:44:40.017Z,0.04
2023-01-28T04:47:09.858Z,0.06
2023-01-28T04:49:55.815Z,0.07
2023-01-28T04:52:28.277Z,0.11
2023-01-28T04:54:58.166Z,0.11
2023-01-28T04:57:25.822Z,0.12
2023-01-28T04:59:53.499Z,0.13
2023-01-28T05:02:22.342Z,0.11
2023-01-28T05:04:50.181Z,0.13
2023-01-28T05:07:20.855Z,0.14
2023-01-28T05:09:48.983Z,0.14
2023-01-28T05:12:16.884Z,0.15
2023-01-28T05:14:46.780Z,0.18
2023-01-28T05:17:17.817Z,0.21
2023-01-28T05:19:46.402Z,0.22
2023-01-28T05:22:27.196Z,0.24
2023-01-28T05:25:35.882Z,0.26
2023-01-28T05:31:18.463Z,0.27
2023-01-28T05:33:47.916Z,0.28
2023-01-28T05:36:16.661Z,0.30
2023-01-28T05:38:44.179Z,0.29
2023-01-28T05:41:11.882Z,0.29
2023-01-28T05:43:40.447Z,0.27
2023-01-28T05:46:11.519Z,0.27
2023-01-28T05:48:58.981Z,0.28
2023-01-28T05:51:45.097Z,0.27
2023-01-28T05:54:14.573Z,0.27
2023-01-28T05:56:43.324Z,0.26
2023-01-28T05:59:11.662Z,0.24
2023-01-28T06:01:42.351Z,0.24
2023-01-28T06:04:11.986Z,0.23
2023-01-28T06:06:40.306Z,0.26
2023-01-28T06:09:10.849Z,0.24
2023-01-28T06:11:38.846Z,0.23
2023-01-28T06:14:06.829Z,0.24
2023-01-28T06:16:51.075Z,0.25
2023-01-28T06:19:37.298Z,0.28
2023-01-28T06:22:14.427Z,0.29
2023-01-28T06:24:42.237Z,0.29
2023-01-28T06:27:12.821Z,0.31
2023-01-28T06:29:40.465Z,0.31
2023-01-28T06:32:08.093Z,0.33
2023-01-28T06:34:35.557Z,0.35
2023-01-28T06:37:06.450Z,0.38
2023-01-28T06:39:34.348Z,0.40
2023-01-28T06:42:02.435Z,0.40
2023-01-28T06:44:33.135Z,0.40
2023-01-28T06:47:00.862Z,0.42
2023-01-28T06:49:28.835Z,0.43
2023-01-28T06:52:04.656Z,0.48
2023-01-28T06:54:32.498Z,0.49
2023-01-28T06:57:00.454Z,0.51
2023-01-28T06:59:28.112Z,0.53
2023-01-28T07:01:55.517Z,0.56
2023-01-28T07:04:22.722Z,0.59
2023-01-28T07:06:50.267Z,0.60
2023-01-28T07:09:17.813Z,0.61
2023-01-28T07:11:45.182Z,0.63
2023-01-28T07:14:12.997Z,0.64
2023-01-28T07:16:41.285Z,0.62
2023-01-28T07:19:09.291Z,0.63
2023-01-28T07:21:51.839Z,0.64
2023-01-28T07:24:21.370Z,0.65
2023-01-28T07:26:49.375Z,0.67
2023-01-28T07:29:17.149Z,0.69
2023-01-28T07:31:44.846Z,0.72
2023-01-28T07:34:12.885Z,0.75
2023-01-28T07:36:40.753Z,0.75
2023-01-28T07:39:08.618Z,0.76
2023-01-28T07:41:36.223Z,0.77
2023-01-28T07:44:05.689Z,0.78
2023-01-28T07:46:33.860Z,0.81
2023-01-28T07:49:01.886Z,0.83
2023-01-28T07:51:29.613Z,0.84
2023-01-28T07:54:00.804Z,0.85
2023-01-28T07:56:30.766Z,0.79
2023-01-28T07:58:58.428Z,0.77
2023-01-28T08:01:26.559Z,0.77
2023-01-28T08:03:59.980Z,0.73
2023-01-28T08:06:29.163Z,0.73
2023-01-28T08:08:56.694Z,0.73
2023-01-28T08:11:24.335Z,0.70
2023-01-28T08:13:56.445Z,0.68
2023-01-28T08:16:27.325Z,0.69
2023-01-28T08:18:59.221Z,0.71
2023-01-28T08:21:26.739Z,0.71
2023-01-28T08:23:54.964Z,0.74
2023-01-28T08:26:22.504Z,0.78
2023-01-28T08:28:51.505Z,0.82
2023-01-28T08:31:19.964Z,0.88
2023-01-28T08:33:47.388Z,0.94
2023-01-28T08:36:15.169Z,0.98
2023-01-28T08:38:42.954Z,1.01
2023-01-28T08:41:10.886Z,1.05
2023-01-28T08:43:38.164Z,1.10
2023-01-28T08:46:07.052Z,1.16
2023-01-28T08:48:34.732Z,1.19
2023-01-28T08:51:03.346Z,1.20
2023-01-28T08:53:30.930Z,1.24
2023-01-28T08:55:58.386Z,1.25
2023-01-28T08:58:25.784Z,1.25
2023-01-28T09:00:53.276Z,1.25
2023-01-28T09:03:20.572Z,1.27
2023-01-28T09:05:49.761Z,1.26
2023-01-28T09:08:18.140Z,1.26
2023-01-28T09:10:45.428Z,1.28
2023-01-28T09:13:15.169Z,1.30
2023-01-28T09:15:43.187Z,1.31
2023-01-28T09:18:10.504Z,1.33
2023-01-28T09:20:38.185Z,1.35
2023-01-28T09:23:06.345Z,1.39
2023-01-28T09:25:35.481Z,1.43
2023-01-28T09:28:03.389Z,1.44
2023-01-28T09:30:31.070Z,1.42
2023-01-28T09:32:58.872Z,1.41
2023-01-28T09:35:26.286Z,1.38
2023-01-28T09:37:58.626Z,1.41
2023-01-28T09:40:32.838Z,1.40
2023-01-28T09:43:17.486Z,1.43
2023-01-28T09:45:50.444Z,1.53
2023-01-28T09:48:21.384Z,1.60
2023-01-28T09:50:51.128Z,1.63
2023-01-28T09:53:22.345Z,1.65
2023-01-28T09:55:59.179Z,1.67
2023-01-28T09:58:26.891Z,1.71
2023-01-28T10:01:31.120Z,1.72
2023-01-28T10:04:33.280Z,1.72
2023-01-28T10:07:28.469Z,1.75
2023-01-28T10:10:23.628Z,1.80
2023-01-28T10:13:06.633Z,1.83
2023-01-28T10:15:53.333Z,1.87
2023-01-28T10:18:24.385Z,1.93
2023-01-28T10:20:55.431Z,1.94
2023-01-28T10:23:26.383Z,1.96
2023-01-28T10:25:55.619Z,1.98
2023-01-28T10:28:27.659Z,1.99
2023-01-28T10:30:55.620Z,2.00
2023-01-28T10:33:29.784Z,2.03
2023-01-28T10:35:58.283Z,2.05
2023-01-28T10:38:27.339Z,2.08
2023-01-28T10:40:57.931Z,2.13
2023-01-28T10:43:28.611Z,2.14
2023-01-28T10:46:14.815Z,2.17
2023-01-28T10:48:46.125Z,2.15
2023-01-28T10:51:14.799Z,2.18
2023-01-28T10:53:48.479Z,2.11
2023-01-28T10:56:18.028Z,1.97
2023-01-28T10:59:03.455Z,1.88
2023-01-28T11:01:46.431Z,1.84
2023-01-28T11:04:18.957Z,1.78
2023-01-28T11:06:54.088Z,1.73
2023-01-28T11:09:25.110Z,1.65
2023-01-28T11:11:52.879Z,1.52
2023-01-28T11:14:21.989Z,1.44
2023-01-28T11:16:50.480Z,1.43
2023-01-28T11:19:20.488Z,1.48
2023-01-28T11:21:50.625Z,1.50
2023-01-28T11:24:24.286Z,1.53
2023-01-28T11:26:54.186Z,1.57
2023-01-28T11:29:32.669Z,1.63
2023-01-28T11:32:01.399Z,1.66
2023-01-28T11:34:32.561Z,1.66
2023-01-28T11:37:06.361Z,1.69
2023-01-28T11:39:33.612Z,1.67
2023-01-28T11:42:13.890Z,1.72
2023-01-28T11:44:41.619Z,1.72
2023-01-28T11:47:31.165Z,1.73
2023-01-28T11:50:18.404Z,1.77
2023-01-28T11:53:07.391Z,1.83
2023-01-28T11:55:52.692Z,1.92
2023-01-28T11:58:26.777Z,1.97
2023-01-28T12:01:09.965Z,2.03
2023-01-28T12:03:57.245Z,2.05
2023-01-28T12:06:49.325Z,2.12
2023-01-28T12:09:38.887Z,2.17
2023-01-28T12:12:13.228Z,2.12
2023-01-28T12:14:59.646Z,2.04
2023-01-28T12:17:48.654Z,2.00
2023-01-28T12:20:26.599Z,1.99
2023-01-28T12:22:58.401Z,1.87
2023-01-28T12:25:35.478Z,1.84
2023-01-28T12:28:18.632Z,1.87
2023-01-28T12:31:14.776Z,1.79
2023-01-28T12:34:06.136Z,1.75
2023-01-28T12:36:53.693Z,1.78
2023-01-28T12:39:58.257Z,1.79
2023-01-28T12:42:37.775Z,1.80
2023-01-28T12:45:24.941Z,1.83
2023-01-28T12:48:21.841Z,1.84
2023-01-28T12:51:02.087Z,1.85
2023-01-28T12:53:41.333Z,1.84
2023-01-28T12:56:22.529Z,1.84
2023-01-28T12:59:02.735Z,1.83
2023-01-28T13:01:42.542Z,1.85
2023-01-28T13:04:28.491Z,1.91
2023-01-28T13:07:02.305Z,1.96
2023-01-28T13:09:30.586Z,1.96
2023-01-28T13:11:59.440Z,1.94
2023-01-28T13:14:31.786Z,1.93
2023-01-28T13:17:10.053Z,1.88
2023-01-28T13:19:39.976Z,1.81
2023-01-28T13:22:12.906Z,1.80
2023-01-28T13:24:40.340Z,1.80
2023-01-28T13:27:13.992Z,1.85
2023-01-28T13:29:45.684Z,1.85
2023-01-28T13:32:31.685Z,1.83
2023-01-28T13:35:02.459Z,1.81
2023-01-28T13:37:33.438Z,1.77
2023-01-28T13:40:14.312Z,1.76
2023-01-28T13:42:42.295Z,1.74
2023-01-28T13:45:20.580Z,1.75
2023-01-28T13:48:15.473Z,1.75
2023-01-28T13:50:43.753Z,1.79
2023-01-28T13:53:31.728Z,1.78
2023-01-28T13:56:07.325Z,1.80
2023-01-28T13:58:39.661Z,1.84
2023-01-28T14:01:20.082Z,1.86
2023-01-28T14:04:08.636Z,1.88
2023-01-28T14:07:04.464Z,1.84
2023-01-28T14:09:35.849Z,1.81
2023-01-28T14:12:22.350Z,1.80
2023-01-28T14:14:59.760Z,1.74
2023-01-28T14:17:44.861Z,1.72
2023-01-28T14:20:41.807Z,1.71
2023-01-28T14:23:21.622Z,1.70
2023-01-28T14:26:02.430Z,1.69
2023-01-28T14:28:54.376Z,1.60
2023-01-28T14:31:48.002Z,1.45
2023-01-28T14:34:24.654Z,1.53
2023-01-28T14:36:55.616Z,1.49
2023-01-28T14:39:30.274Z,1.45
2023-01-28T14:42:02.735Z,1.45
2023-01-28T14:44:39.720Z,1.45
2023-01-28T14:47:34.034Z,1.42
2023-01-28T14:50:48.143Z,1.40
2023-01-28T14:53:35.726Z,1.39
2023-01-28T14:56:41.585Z,1.37
2023-01-28T14:59:20.801Z,1.36
2023-01-28T15:01:49.227Z,1.33
2023-01-28T15:04:26.016Z,1.26
2023-01-28T15:06:53.551Z,1.22
2023-01-28T15:09:29.153Z,1.17
2023-01-28T15:11:57.847Z,1.15
2023-01-28T15:14:32.311Z,1.12
2023-01-28T15:17:00.280Z,1.10
2023-01-28T15:19:30.176Z,1.07
2023-01-28T15:22:02.510Z,1.05
2023-01-28T15:24:32.246Z,1.02
2023-01-28T15:26:59.990Z,1.01
2023-01-28T15:29:35.963Z,0.98
2023-01-28T15:32:05.776Z,0.95
2023-01-28T15:34:33.119Z,0.92
2023-01-28T15:37:01.029Z,0.91
2023-01-28T15:39:29.373Z,0.90
2023-01-28T15:42:00.158Z,0.86
2023-01-28T15:44:44.597Z,0.83
2023-01-28T15:47:15.681Z,0.79
2023-01-28T15:49:47.668Z,0.77
2023-01-28T15:52:15.555Z,0.74
2023-01-28T15:54:45.519Z,0.74
2023-01-28T15:57:34.173Z,0.74
2023-01-28T16:00:09.122Z,0.74
2023-01-28T16:02:53.265Z,0.74
2023-01-28T16:05:31.945Z,0.75
2023-01-28T16:08:11.246Z,0.75
2023-01-28T16:10:39.150Z,0.76
2023-01-28T16:13:15.839Z,0.76
2023-01-28T16:15:47.189Z,0.76
2023-01-28T16:18:20.710Z,0.77
2023-01-28T16:20:50.046Z,0.76
2023-01-28T16:23:22.602Z,0.74
2023-01-28T16:26:02.456Z,0.68
2023-01-28T16:28:30.504Z,0.62
2023-01-28T16:31:01.506Z,0.57
2023-01-28T16:33:29.323Z,0.50
2023-01-28T16:36:07.981Z,0.48
2023-01-28T16:40:54.984Z,0.46
2023-01-28T16:43:25.438Z,0.44
2023-01-28T16:45:52.970Z,0.44
2023-01-28T16:48:21.921Z,0.44
2023-01-28T16:50:49.403Z,0.43
2023-01-28T16:53:19.385Z,0.42
2023-01-28T16:55:48.994Z,0.39
2023-01-28T16:58:19.462Z,0.38
2023-01-28T17:00:46.973Z,0.37
2023-01-28T17:03:14.221Z,0.38
2023-01-28T17:05:41.661Z,0.38
2023-01-28T17:08:08.911Z,0.38
2023-01-28T17:10:36.291Z,0.39
2023-01-28T17:13:04.413Z,0.38
2023-01-28T17:15:34.556Z,0.36
2023-01-28T17:18:02.481Z,0.34
2023-01-28T17:20:29.896Z,0.31
2023-01-28T17:22:57.386Z,0.30
2023-01-28T17:25:25.335Z,0.30
2023-01-28T17:27:52.749Z,0.28
2023-01-28T17:30:20.239Z,0.23
2023-01-28T17:32:47.652Z,0.20
2023-01-28T17:35:15.423Z,0.16
2023-01-28T17:37:43.168Z,0.13
2023-01-28T17:40:14.965Z,0.09
2023-01-28T17:42:42.676Z,0.07
2023-01-28T17:45:10.177Z,0.02
2023-01-28T17:47:37.588Z,-0.07
2023-01-28T17:50:13.942Z,-0.10
2023-01-28T17:52:51.210Z,-0.12
2023-01-28T17:55:24.488Z,-0.14
2023-01-28T17:58:11.715Z,-0.18
2023-01-28T18:00:53.290Z,-0.22
2023-01-28T18:03:25.243Z,-0.24
2023-01-28T18:05:59.752Z,-0.29
2023-01-28T18:08:27.955Z,-0.34
2023-01-28T18:10:55.957Z,-0.41
2023-01-28T18:13:23.559Z,-0.50
2023-01-28T18:15:51.369Z,-0.61
2023-01-28T18:18:19.367Z,-0.72
2023-01-28T18:20:59.586Z,-0.80
2023-01-28T18:23:27.141Z,-0.87
2023-01-28T18:26:00.862Z,-0.94
2023-01-28T18:28:28.591Z,-1.02
2023-01-28T18:30:58.286Z,-1.08
2023-01-28T18:33:25.976Z,-1.10
2023-01-28T18:35:53.559Z,-1.10
2023-01-28T18:38:21.064Z,-1.08
2023-01-28T18:40:49.148Z,-1.09
2023-01-28T18:43:16.957Z,-1.13
2023-01-28T18:45:46.300Z,-1.17
2023-01-28T18:48:14.366Z,-1.20
2023-01-28T18:50:41.902Z,-1.23
2023-01-28T18:53:09.165Z,-1.22
2023-01-28T18:55:36.525Z,-1.23
2023-01-28T18:58:04.031Z,-1.20
2023-01-28T19:00:34.767Z,-1.19
2023-01-28T19:03:02.327Z,-1.16
2023-01-28T19:05:35.423Z,-1.15
2023-01-28T19:08:04.762Z,-1.16
2023-01-28T19:10:34.021Z,-1.17
2023-01-28T19:13:01.559Z,-1.14
2023-01-28T19:15:31.153Z,-1.08
2023-01-28T19:17:58.659Z,-1.02
2023-01-28T19:20:26.565Z,-1.00
2023-01-28T19:22:55.999Z,-0.98
2023-01-28T19:25:23.744Z,-0.93
2023-01-28T19:27:53.272Z,-0.89
2023-01-28T19:30:21.015Z,-0.81
2023-01-28T19:32:48.555Z,-0.76
2023-01-28T19:35:16.706Z,-0.70
2023-01-28T19:37:44.272Z,-0.64
2023-01-28T19:40:11.906Z,-0.60
2023-01-28T19:42:39.440Z,-0.57
2023-01-28T19:45:07.737Z,-0.56
2023-01-28T19:47:35.026Z,-0.56
2023-01-28T19:50:02.460Z,-0.58
2023-01-28T19:52:30.620Z,-0.58
2023-01-28T19:54:58.090Z,-0.57
2023-01-28T19:57:25.640Z,-0.55
2023-01-28T19:59:53.255Z,-0.54
2023-01-28T20:02:21.322Z,-0.50
2023-01-28T20:05:00.374Z,-0.46
2023-01-28T20:07:17.917Z,-0.44
2023-01-28T20:09:46.491Z,-0.42
2023-01-28T20:12:14.443Z,-0.37
2023-01-28T20:14:43.791Z,-0.35
2023-01-28T20:17:11.815Z,-0.33
2023-01-28T20:19:39.650Z,-0.31
2023-01-28T20:22:07.461Z,-0.29
2023-01-28T20:24:34.911Z,-0.29
2023-01-28T20:27:02.442Z,-0.31
2023-01-28T20:29:30.202Z,-0.31
2023-01-28T20:32:15.540Z,-0.31
2023-01-28T20:34:27.208Z,-0.31
2023-01-28T20:36:54.557Z,-0.28
2023-01-28T20:39:21.945Z,-0.25
2023-01-28T20:41:49.469Z,-0.25
2023-01-28T20:44:16.856Z,-0.26
2023-01-28T20:46:44.331Z,-0.25
2023-01-28T20:49:17.030Z,-0.24
2023-01-28T20:51:44.588Z,-0.24
2023-01-28T20:54:13.046Z,-0.25
2023-01-28T20:56:40.727Z,-0.26
2023-01-28T20:59:09.737Z,-0.25
2023-01-28T21:01:37.702Z,-0.22
2023-01-28T21:04:10.400Z,-0.20
2023-01-28T21:06:36.890Z,-0.18
2023-01-28T21:09:04.509Z,-0.19
2023-01-28T21:11:32.141Z,-0.21
2023-01-28T21:13:59.688Z,-0.22
2023-01-28T21:16:28.112Z,-0.24
2023-01-28T21:18:55.367Z,-0.25
2023-01-28T21:21:25.391Z,-0.25
2023-01-28T21:23:58.169Z,-0.27
2023-01-28T21:26:25.810Z,-0.28
2023-01-28T21:28:53.144Z,-0.30
2023-01-28T21:31:24.988Z,-0.31
2023-01-28T21:33:56.019Z,-0.34
2023-01-28T21:36:26.771Z,-0.36
2023-01-28T21:38:56.259Z,-0.40
2023-01-28T21:41:24.024Z,-0.42
2023-01-28T21:43:53.009Z,-0.46
2023-01-28T21:46:28.986Z,-0.50
2023-01-28T21:48:59.166Z,-0.54
2023-01-28T21:51:42.178Z,-0.59
2023-01-28T21:54:12.192Z,-0.62
2023-01-28T21:56:39.743Z,-0.62
2023-01-28T21:59:25.431Z,-0.63
2023-01-28T22:01:55.175Z,-0.63
2023-01-28T22:04:24.192Z,-0.63
2023-01-28T22:06:52.945Z,-0.62
2023-01-28T22:09:20.497Z,-0.60
2023-01-28T22:11:48.148Z,-0.60
2023-01-28T22:14:15.571Z,-0.58
2023-01-28T22:16:43.071Z,-0.58
2023-01-28T22:19:10.769Z,-0.57
2023-01-28T22:21:41.903Z,-0.59
2023-01-28T22:24:12.613Z,-0.60
2023-01-28T22:26:40.890Z,-0.64
2023-01-28T22:29:08.787Z,-0.66
2023-01-28T22:31:36.229Z,-0.64
2023-01-28T22:34:03.832Z,-0.61
2023-01-28T22:39:02.578Z,-0.67
2023-01-28T22:41:30.311Z,-0.74
2023-01-28T22:43:57.764Z,-0.74
2023-01-28T22:46:25.074Z,-0.73
2023-01-28T22:48:52.636Z,-0.68
2023-01-28T22:51:22.201Z,-0.65
2023-01-28T22:53:50.885Z,-0.67
2023-01-28T22:56:20.350Z,-0.68
2023-01-28T22:58:48.052Z,-0.70
2023-01-28T23:01:17.099Z,-0.74
2023-01-28T23:03:47.168Z,-0.78
2023-01-28T23:06:16.648Z,-0.83
2023-01-28T23:08:44.566Z,-0.85
2023-01-28T23:11:15.143Z,-0.90
2023-01-28T23:14:01.275Z,-0.91
2023-01-28T23:16:48.070Z,-0.91
2023-01-28T23:19:34.549Z,-0.85
2023-01-28T23:22:20.452Z,-0.80
2023-01-28T23:24:48.094Z,-0.75
2023-01-28T23:27:16.325Z,-0.73
2023-01-28T23:29:44.520Z,-0.73
2023-01-28T23:32:11.940Z,-0.73
2023-01-28T23:34:41.146Z,-0.73
2023-01-28T23:37:09.594Z,-0.72
2023-01-28T23:39:37.180Z,-0.72
2023-01-28T23:42:17.334Z,-0.70
2023-01-28T23:44:45.149Z,-0.70
2023-01-28T23:47:12.550Z,-0.71
2023-01-28T23:49:40.257Z,-0.70
2023-01-28T23:52:08.161Z,-0.70
2023-01-28T23:54:36.158Z,-0.74
2023-01-28T23:57:04.566Z,-0.75
2023-01-28T23:59:32.254Z,-0.77
